Time;durP1;ratioP1;P1;durP2;ratioP2;P2;SDS_P1;SDS_P2;PMS_P1;PMS_P2;Temp;Humidity;BMP_temperature;BMP_pressure;BME280_temperature;BME280_humidity;BME280_pressure;Samples;Min_cycle;Max_cycle;Signal;HPM_P1;HPM_P2
2023/12/03 00:00:08;;;;;;;25.52;14.30;;;;;;;-6.64;100.00;96955.59;5021009;28;20492;-73
2023/12/03 00:02:36;;;;;;;23.63;12.98;;;;;;;-6.29;100.00;96952.47;5030157;28;20064;-75
2023/12/03 00:05:02;;;;;;;19.92;12.02;;;;;;;-6.13;100.00;96956.09;5049828;28;20816;-73
2023/12/03 00:07:29;;;;;;;23.63;13.93;;;;;;;-6.21;100.00;96949.34;5027202;28;20071;-73
2023/12/03 00:09:58;;;;;;;22.55;13.05;;;;;;;-6.26;100.00;96959.19;5039127;28;20068;-74
2023/12/03 00:12:24;;;;;;;23.77;12.55;;;;;;;-6.29;100.00;96965.00;5019773;28;20843;-74
2023/12/03 00:14:49;;;;;;;24.98;13.18;;;;;;;-6.38;100.00;96964.66;5069223;22;20140;-72
2023/12/03 00:17:15;;;;;;;22.55;13.40;;;;;;;-6.30;100.00;96968.72;5026391;28;20041;-73
2023/12/03 00:19:40;;;;;;;23.13;12.88;;;;;;;-6.29;100.00;96965.78;5037577;28;20032;-73
2023/12/03 00:22:07;;;;;;;23.73;13.50;;;;;;;-6.25;100.00;96966.91;5033677;28;20098;-73
2023/12/03 00:24:32;;;;;;;19.17;11.70;;;;;;;-6.28;100.00;96967.41;5020590;28;20726;-73
2023/12/03 00:26:58;;;;;;;21.92;12.05;;;;;;;-6.28;100.00;96964.75;5008749;28;20136;-74
2023/12/03 00:29:24;;;;;;;21.15;11.93;;;;;;;-6.13;100.00;96971.28;4999649;28;20069;-72
2023/12/03 00:31:49;;;;;;;21.95;11.95;;;;;;;-5.88;100.00;96965.34;5014729;28;20077;-73
2023/12/03 00:34:15;;;;;;;21.73;11.30;;;;;;;-5.66;100.00;96975.91;5007671;28;20491;-73
2023/12/03 00:36:40;;;;;;;21.48;12.18;;;;;;;-5.44;100.00;96978.47;5007195;28;20064;-74
2023/12/03 00:39:06;;;;;;;20.77;10.95;;;;;;;-5.46;100.00;96981.38;5012811;28;20511;-73
2023/12/03 00:41:31;;;;;;;20.52;10.82;;;;;;;-5.57;100.00;96983.19;5018050;28;20045;-73
2023/12/03 00:43:57;;;;;;;21.27;11.65;;;;;;;-5.56;100.00;96984.00;4989530;28;20046;-74
2023/12/03 00:46:22;;;;;;;18.45;10.85;;;;;;;-5.35;100.00;96984.94;5009507;28;20213;-73
2023/12/03 00:48:48;;;;;;;16.17;10.75;;;;;;;-5.39;100.00;96992.66;5010371;28;20041;-73
2023/12/03 00:51:14;;;;;;;17.95;10.73;;;;;;;-5.41;100.00;96986.75;4994918;28;20125;-73
2023/12/03 00:53:40;;;;;;;17.50;10.77;;;;;;;-5.57;100.00;96996.53;5026427;28;20042;-73
2023/12/03 00:56:06;;;;;;;18.05;10.32;;;;;;;-5.53;100.00;96994.16;5010083;28;20065;-73
2023/12/03 00:58:32;;;;;;;19.88;10.85;;;;;;;-5.42;100.00;97001.19;5005522;28;20046;-73
2023/12/03 01:00:57;;;;;;;19.95;11.75;;;;;;;-5.22;100.00;97005.03;5006701;28;20049;-73
2023/12/03 01:03:22;;;;;;;18.92;11.05;;;;;;;-5.16;100.00;97006.69;5010053;28;20407;-72
2023/12/03 01:05:48;;;;;;;18.08;11.57;;;;;;;-5.09;100.00;97015.28;5002648;28;20103;-73
2023/12/03 01:08:13;;;;;;;18.40;10.57;;;;;;;-4.97;100.00;97006.25;5009686;28;20084;-73
2023/12/03 01:10:39;;;;;;;20.35;11.00;;;;;;;-4.81;100.00;97015.97;5014308;28;20045;-72
2023/12/03 01:13:04;;;;;;;18.35;10.70;;;;;;;-4.92;100.00;97006.28;5000823;28;20048;-74
2023/12/03 01:15:29;;;;;;;17.70;10.73;;;;;;;-4.89;100.00;97003.91;5028241;28;20132;-73
2023/12/03 01:17:55;;;;;;;21.60;11.75;;;;;;;-5.10;100.00;97007.53;4999683;28;20077;-73
2023/12/03 01:20:20;;;;;;;17.77;10.52;;;;;;;-5.58;100.00;97015.50;5013623;28;20049;-73
2023/12/03 01:22:46;;;;;;;19.40;11.07;;;;;;;-5.61;100.00;97022.13;5015663;28;20095;-73
2023/12/03 01:25:11;;;;;;;16.67;10.40;;;;;;;-5.55;100.00;97020.28;5001628;28;20038;-73
2023/12/03 01:27:37;;;;;;;19.25;11.30;;;;;;;-5.50;100.00;97015.00;5009269;28;20068;-72
2023/12/03 01:30:02;;;;;;;21.23;11.65;;;;;;;-5.39;100.00;97015.88;4999891;28;20042;-74
2023/12/03 01:32:28;;;;;;;21.02;11.45;;;;;;;-5.34;100.00;97023.13;5009695;28;20038;-73
2023/12/03 01:34:53;;;;;;;21.40;10.60;;;;;;;-5.34;100.00;97029.28;5010695;28;20042;-73
2023/12/03 01:37:18;;;;;;;19.92;10.98;;;;;;;-5.31;100.00;97030.59;5008044;28;20132;-73
2023/12/03 01:39:44;;;;;;;19.27;10.63;;;;;;;-5.19;100.00;97025.88;5037288;28;20042;-72
2023/12/03 01:42:09;;;;;;;19.80;10.85;;;;;;;-5.29;100.00;97031.19;5000471;28;20041;-73
2023/12/03 01:44:35;;;;;;;23.23;13.77;;;;;;;-5.08;100.00;97037.44;5007535;28;20060;-73
2023/12/03 01:47:02;;;;;;;19.42;11.07;;;;;;;-5.08;100.00;97043.59;5004776;28;20077;-74
2023/12/03 01:49:28;;;;;;;17.65;10.85;;;;;;;-4.94;100.00;97043.94;5014665;28;20042;-74
2023/12/03 01:51:53;;;;;;;21.00;12.80;;;;;;;-4.69;100.00;97045.94;5014814;28;20046;-73
2023/12/03 01:54:19;;;;;;;19.45;10.70;;;;;;;-4.65;100.00;97041.69;5019493;28;20485;-74
2023/12/03 01:56:44;;;;;;;20.33;10.27;;;;;;;-4.60;100.00;97054.28;5010185;28;20077;-74
2023/12/03 01:59:10;;;;;;;17.65;10.38;;;;;;;-4.61;100.00;97042.78;4998561;28;20043;-74
2023/12/03 02:01:36;;;;;;;20.73;11.48;;;;;;;-5.12;100.00;97055.06;5016065;28;20084;-75
2023/12/03 02:04:01;;;;;;;16.88;10.48;;;;;;;-5.21;100.00;97057.41;5011409;28;20051;-75
2023/12/03 02:06:26;;;;;;;18.90;10.57;;;;;;;-5.07;100.00;97053.22;5004871;28;20113;-74
2023/12/03 02:08:52;;;;;;;17.13;9.93;;;;;;;-4.82;100.00;97055.25;5009098;28;20153;-72
2023/12/03 02:11:18;;;;;;;16.20;10.30;;;;;;;-4.98;100.00;97061.56;5000278;28;20590;-73
2023/12/03 02:13:43;;;;;;;16.40;9.50;;;;;;;-4.92;100.00;97065.88;5000668;28;20054;-73
2023/12/03 02:16:09;;;;;;;18.75;10.77;;;;;;;-4.72;100.00;97062.50;5006411;28;20046;-74
2023/12/03 02:18:35;;;;;;;20.40;10.13;;;;;;;-4.55;100.00;97069.56;5002176;28;20042;-75
2023/12/03 02:21:00;;;;;;;18.67;10.30;;;;;;;-4.56;100.00;97067.94;5009865;28;20080;-75
2023/12/03 02:23:29;;;;;;;17.15;10.13;;;;;;;-4.52;100.00;97061.00;5010515;28;20046;-74
2023/12/03 02:25:54;;;;;;;16.40;9.88;;;;;;;-4.64;100.00;97063.91;5002753;28;20631;-74
2023/12/03 02:28:20;;;;;;;19.05;10.40;;;;;;;-4.66;100.00;97058.81;5016941;28;20046;-72
2023/12/03 02:30:45;;;;;;;19.05;9.93;;;;;;;-5.04;100.00;97059.91;5014307;28;20069;-73
2023/12/03 02:33:11;;;;;;;19.98;10.38;;;;;;;-5.05;100.00;97064.44;4999494;28;20046;-72
2023/12/03 02:35:36;;;;;;;18.50;10.15;;;;;;;-4.75;100.00;97057.69;5013924;28;20112;-73
2023/12/03 02:38:02;;;;;;;18.35;10.50;;;;;;;-4.48;100.00;97059.44;5012115;28;20045;-72
2023/12/03 02:40:31;;;;;;;18.10;10.60;;;;;;;-4.29;100.00;97059.75;5005288;28;20044;-72
2023/12/03 02:42:56;;;;;;;;;;;;;;;-4.29;100.00;97057.09;5010053;28;20053;-72
2023/12/03 02:45:22;;;;;;;19.83;10.75;;;;;;;-4.20;100.00;97065.41;4997894;28;19929;-72
2023/12/03 02:47:47;;;;;;;16.73;9.77;;;;;;;-4.30;100.00;97066.19;5008526;28;20041;-74
2023/12/03 02:50:13;;;;;;;17.77;10.13;;;;;;;-4.40;100.00;97066.94;5014599;28;20045;-73
2023/12/03 02:52:40;;;;;;;18.15;10.35;;;;;;;-4.77;100.00;97062.50;5021688;28;20109;-72
2023/12/03 02:55:07;;;;;;;19.08;11.18;;;;;;;-4.96;100.00;97063.97;5030498;28;20076;-71
2023/12/03 02:57:33;;;;;;;19.13;10.57;;;;;;;-5.02;100.00;97069.28;5008242;28;20117;-72
2023/12/03 02:59:58;;;;;;;20.00;11.85;;;;;;;-5.05;100.00;97066.31;5003849;28;20199;-72
2023/12/03 03:02:23;;;;;;;22.40;12.20;;;;;;;-5.11;100.00;97070.00;5016587;28;20049;-71
2023/12/03 03:04:49;;;;;;;22.58;11.77;;;;;;;-5.01;100.00;97070.88;5003509;28;20542;-73
2023/12/03 03:07:14;;;;;;;21.02;10.88;;;;;;;-4.76;100.00;97073.97;5000721;28;20458;-71
2023/12/03 03:09:40;;;;;;;17.50;10.57;;;;;;;-4.48;100.00;97078.94;5000341;28;20046;-73
2023/12/03 03:12:05;;;;;;;20.13;11.20;;;;;;;-4.36;100.00;97080.59;4999293;28;20060;-72
2023/12/03 03:14:31;;;;;;;18.30;11.02;;;;;;;-4.29;100.00;97073.94;5007280;28;20136;-72
2023/12/03 03:16:56;;;;;;;18.65;10.52;;;;;;;-4.22;100.00;97084.41;5019155;28;20049;-72
2023/12/03 03:19:22;;;;;;;19.10;10.82;;;;;;;-4.20;100.00;97092.16;5005111;28;20049;-71
2023/12/03 03:21:47;;;;;;;16.73;9.82;;;;;;;-4.31;100.00;97084.09;5002786;28;20064;-72
2023/12/03 03:24:12;;;;;;;16.67;9.68;;;;;;;-4.23;100.00;97083.59;4994576;28;20127;-72
2023/12/03 03:26:38;;;;;;;17.80;10.60;;;;;;;-4.26;100.00;97086.00;5001494;28;20414;-71
2023/12/03 03:29:05;;;;;;;17.05;10.27;;;;;;;-4.57;100.00;97077.84;4995439;28;20082;-75
2023/12/03 03:31:31;;;;;;;18.88;10.55;;;;;;;-4.95;100.00;97084.28;5001895;28;20049;-73
2023/12/03 03:33:56;;;;;;;20.38;10.95;;;;;;;-5.06;100.00;97091.41;5003766;28;20677;-72
2023/12/03 03:36:22;;;;;;;17.25;10.93;;;;;;;-4.98;100.00;97082.13;5019001;28;20060;-72
2023/12/03 03:38:47;;;;;;;18.23;10.70;;;;;;;-4.84;100.00;97088.66;5015255;28;20054;-73
2023/12/03 03:41:12;;;;;;;20.45;11.30;;;;;;;-4.79;100.00;97091.31;5008127;28;20051;-71
2023/12/03 03:43:38;;;;;;;17.50;10.85;;;;;;;-4.73;100.00;97094.84;5014708;28;20046;-71
2023/12/03 03:46:03;;;;;;;17.85;10.95;;;;;;;-4.73;100.00;97101.00;4998477;28;20073;-74
2023/12/03 03:48:29;;;;;;;22.27;11.32;;;;;;;-4.88;100.00;97098.22;4998290;28;20045;-72
2023/12/03 03:50:55;;;;;;;20.55;11.10;;;;;;;-5.00;100.00;97087.72;5001191;28;20050;-73
2023/12/03 03:53:20;;;;;;;20.13;11.10;;;;;;;-5.11;100.00;97089.53;5012462;28;20053;-71
2023/12/03 03:55:46;;;;;;;18.70;10.75;;;;;;;-5.49;100.00;97091.38;5033247;28;20140;-71
2023/12/03 03:58:11;;;;;;;19.48;11.23;;;;;;;-5.73;100.00;97101.53;5005662;28;20076;-73
2023/12/03 04:00:38;;;;;;;21.50;11.82;;;;;;;-5.74;100.00;97096.44;5005595;28;20119;-74
2023/12/03 04:03:03;;;;;;;20.42;11.13;;;;;;;-5.77;100.00;97100.44;5005691;28;20073;-73
2023/12/03 04:05:29;;;;;;;22.67;12.55;;;;;;;-5.85;100.00;97103.53;4999964;28;20088;-71
2023/12/03 04:07:54;;;;;;;20.23;11.70;;;;;;;-5.92;100.00;97110.94;5000934;28;20049;-71
2023/12/03 04:10:20;;;;;;;21.52;12.18;;;;;;;-6.03;100.00;97102.88;5003062;28;20053;-74
2023/12/03 04:12:47;;;;;;;21.70;11.73;;;;;;;-6.06;100.00;97111.34;5003946;28;20050;-72
2023/12/03 04:15:13;;;;;;;24.67;11.80;;;;;;;-5.91;100.00;97113.34;4997426;28;20053;-74
2023/12/03 04:17:39;;;;;;;22.00;11.68;;;;;;;-5.92;100.00;97110.94;5026978;28;20556;-74
2023/12/03 04:20:05;;;;;;;20.25;11.13;;;;;;;-6.00;100.00;97106.88;5019491;28;20064;-75
2023/12/03 04:22:31;;;;;;;18.92;10.75;;;;;;;-6.08;100.00;97116.13;4996048;28;20182;-74
2023/12/03 04:24:56;;;;;;;20.77;11.07;;;;;;;-5.99;100.00;97109.31;5009498;28;20069;-74
2023/12/03 04:27:22;;;;;;;21.30;11.40;;;;;;;-5.98;100.00;97115.44;5003950;28;20055;-74
2023/12/03 04:29:47;;;;;;;19.77;11.63;;;;;;;-6.20;100.00;97115.47;5015649;28;20037;-72
2023/12/03 04:32:12;;;;;;;22.33;12.07;;;;;;;-6.51;100.00;97124.94;5010477;28;20594;-72
2023/12/03 04:34:41;;;;;;;19.90;11.43;;;;;;;-6.53;100.00;97122.53;5004903;28;20408;-73
2023/12/03 04:37:06;;;;;;;23.27;13.30;;;;;;;-6.46;100.00;97120.47;5003866;28;20495;-72
2023/12/03 04:39:32;;;;;;;19.45;11.70;;;;;;;-6.40;100.00;97116.81;5012924;28;20132;-73
2023/12/03 04:41:57;;;;;;;23.17;11.63;;;;;;;-6.26;100.00;97119.94;5017548;28;20528;-73
2023/12/03 04:44:22;;;;;;;19.45;11.73;;;;;;;-6.16;100.00;97119.22;5000555;28;20074;-73
2023/12/03 04:46:48;;;;;;;22.00;11.82;;;;;;;-6.17;100.00;97121.09;5007306;28;20038;-73
2023/12/03 04:49:13;;;;;;;20.00;11.30;;;;;;;-6.11;100.00;97124.63;4995421;28;20385;-72
2023/12/03 04:51:39;;;;;;;17.70;10.07;;;;;;;-6.03;100.00;97126.88;5015036;28;20050;-73
2023/12/03 04:54:05;;;;;;;18.90;10.68;;;;;;;-6.03;100.00;97118.03;5027280;28;20098;-75
2023/12/03 04:56:30;;;;;;;19.10;10.25;;;;;;;-6.11;100.00;97129.97;5005771;28;20042;-72
2023/12/03 04:58:55;;;;;;;21.00;11.73;;;;;;;-6.09;100.00;97135.84;5008289;28;20038;-72
2023/12/03 05:01:21;;;;;;;21.40;10.77;;;;;;;-6.06;100.00;97129.22;4998638;28;20152;-71
2023/12/03 05:03:46;;;;;;;24.67;12.10;;;;;;;-6.12;100.00;97135.53;5005107;28;20116;-73
2023/12/03 05:06:12;;;;;;;21.15;11.32;;;;;;;-6.55;100.00;97135.28;4998801;28;20078;-72
2023/12/03 05:08:38;;;;;;;19.23;11.50;;;;;;;-6.77;100.00;97137.88;5010830;28;20053;-72
2023/12/03 05:11:04;;;;;;;21.85;10.63;;;;;;;-6.91;100.00;97137.44;5004846;28;20112;-75
2023/12/03 05:13:33;;;;;;;23.00;15.30;;;;;;;-7.01;100.00;97146.06;5009828;28;20081;-71
2023/12/03 05:16:01;;;;;;;21.50;12.05;;;;;;;-6.92;100.00;97131.28;5011011;28;20045;-71
2023/12/03 05:18:26;;;;;;;22.35;11.70;;;;;;;-6.87;100.00;97135.09;5008770;28;20134;-73
2023/12/03 05:20:52;;;;;;;19.83;11.27;;;;;;;-6.87;100.00;97130.56;5029029;28;20181;-74
2023/12/03 05:23:17;;;;;;;23.35;12.25;;;;;;;-6.77;100.00;97140.56;5002001;28;20072;-74
2023/12/03 05:25:43;;;;;;;26.00;12.32;;;;;;;-6.76;100.00;97139.50;5011114;28;20132;-73
2023/12/03 05:28:08;;;;;;;23.50;12.27;;;;;;;-6.75;100.00;97144.59;5014685;28;20045;-73
2023/12/03 05:30:34;;;;;;;22.70;11.57;;;;;;;-6.68;100.00;97146.28;5007907;28;20068;-74
2023/12/03 05:32:59;;;;;;;26.70;12.35;;;;;;;-6.65;100.00;97146.59;5012697;28;20526;-73
2023/12/03 05:35:25;;;;;;;21.52;11.85;;;;;;;-6.69;100.00;97155.34;5002557;28;20130;-73
2023/12/03 05:37:51;;;;;;;21.42;11.02;;;;;;;-6.74;100.00;97158.72;5015727;28;20539;-72
2023/12/03 05:40:16;;;;;;;19.85;10.77;;;;;;;-6.79;100.00;97170.13;5006667;28;20056;-71
2023/12/03 05:42:41;;;;;;;18.33;10.55;;;;;;;-6.83;100.00;97163.66;5003138;28;20149;-75
2023/12/03 05:45:08;;;;;;;18.83;11.27;;;;;;;-6.83;100.00;97168.19;5005858;28;20148;-71
2023/12/03 05:47:35;;;;;;;22.25;10.20;;;;;;;-7.19;100.00;97178.25;5016976;28;20049;-71
2023/12/03 05:50:01;;;;;;;21.00;11.18;;;;;;;-7.41;100.00;97178.16;5002810;28;20516;-72
2023/12/03 05:52:27;;;;;;;17.83;10.30;;;;;;;-7.43;100.00;97170.41;5002429;28;20932;-71
2023/12/03 05:54:53;;;;;;;21.48;10.95;;;;;;;-7.39;100.00;97170.75;5026351;28;20049;-73
2023/12/03 05:57:18;;;;;;;17.80;10.18;;;;;;;-7.30;100.00;97172.75;5009564;28;20057;-74
2023/12/03 05:59:44;;;;;;;23.33;11.63;;;;;;;-7.31;100.00;97175.66;5009934;28;20049;-73
2023/12/03 06:02:09;;;;;;;19.35;11.07;;;;;;;-7.39;100.00;97178.72;4999526;28;20112;-73
2023/12/03 06:04:35;;;;;;;19.27;11.85;;;;;;;-7.32;100.00;97185.50;5008306;28;20050;-73
2023/12/03 06:07:00;;;;;;;21.73;10.93;;;;;;;-7.32;100.00;97190.03;5009433;28;20061;-73
2023/12/03 06:09:25;;;;;;;20.63;11.48;;;;;;;-7.23;100.00;97191.25;5005718;28;20689;-74
2023/12/03 06:11:51;;;;;;;21.90;11.05;;;;;;;-7.35;100.00;97196.63;5013665;28;20559;-73
2023/12/03 06:14:16;;;;;;;23.80;11.65;;;;;;;-7.58;100.00;97199.38;4996672;28;20033;-76
2023/12/03 06:16:41;;;;;;;20.20;11.55;;;;;;;-7.88;100.00;97190.59;5002531;28;20073;-74
2023/12/03 06:19:07;;;;;;;18.92;11.15;;;;;;;-8.08;100.00;97198.97;5000588;28;20037;-74
2023/12/03 06:21:32;;;;;;;24.60;11.82;;;;;;;-8.19;100.00;97205.13;5013369;28;20049;-71
2023/12/03 06:23:57;;;;;;;17.58;10.50;;;;;;;-8.25;100.00;97208.72;5005369;28;20400;-74
2023/12/03 06:26:23;;;;;;;23.27;12.40;;;;;;;-8.16;100.00;97209.97;5005275;28;20973;-74
2023/12/03 06:28:48;;;;;;;23.25;11.35;;;;;;;-8.21;100.00;97207.22;5002636;28;20097;-72
2023/12/03 06:31:14;;;;;;;21.85;11.82;;;;;;;-8.05;100.00;97216.28;5006731;28;20050;-71
2023/12/03 06:33:40;;;;;;;22.20;11.43;;;;;;;-7.95;100.00;97208.53;5007580;28;20049;-71
2023/12/03 06:36:06;;;;;;;18.67;10.88;;;;;;;-7.84;100.00;97212.22;5004750;28;20049;-75
2023/12/03 06:38:31;;;;;;;18.25;10.10;;;;;;;-7.79;100.00;97212.31;5013138;28;20053;-72
2023/12/03 06:40:56;;;;;;;18.35;11.00;;;;;;;-7.75;100.00;97212.66;5005329;28;20038;-72
2023/12/03 06:43:22;;;;;;;21.55;11.77;;;;;;;-7.86;100.00;97214.31;5008827;28;20049;-74
2023/12/03 06:45:47;;;;;;;17.35;10.63;;;;;;;-7.76;100.00;97217.16;5021881;28;20464;-74
2023/12/03 06:48:13;;;;;;;18.38;9.70;;;;;;;-7.94;100.00;97222.63;5009973;28;20053;-73
2023/12/03 06:50:38;;;;;;;22.58;10.70;;;;;;;-7.97;100.00;97221.25;5013401;28;20042;-74
2023/12/03 06:53:03;;;;;;;16.55;9.63;;;;;;;-7.92;100.00;97225.88;5022089;28;20083;-76
2023/12/03 06:55:29;;;;;;;22.08;11.63;;;;;;;-8.05;100.00;97226.13;5039180;28;20402;-74
2023/12/03 06:57:55;;;;;;;20.63;11.43;;;;;;;-8.49;100.00;97231.88;5014219;28;20041;-72
2023/12/03 07:00:21;;;;;;;21.67;10.85;;;;;;;-8.68;100.00;97225.84;5005819;28;20045;-72
2023/12/03 07:02:47;;;;;;;22.77;11.07;;;;;;;-8.83;100.00;97236.13;5010556;28;20048;-72
2023/12/03 07:05:12;;;;;;;20.05;10.45;;;;;;;-8.94;100.00;97235.88;5017951;28;20049;-72
2023/12/03 07:07:38;;;;;;;17.17;9.43;;;;;;;-8.91;100.00;97235.44;5005435;28;20034;-72
2023/12/03 07:10:04;;;;;;;17.55;10.15;;;;;;;-8.78;100.00;97238.91;5009056;28;20069;-75
2023/12/03 07:12:32;;;;;;;16.38;9.98;;;;;;;-8.53;100.00;97238.69;5013966;28;20044;-72
2023/12/03 07:14:57;;;;;;;19.08;10.50;;;;;;;-8.31;100.00;97250.31;5012585;28;20049;-72
2023/12/03 07:17:23;;;;;;;22.52;10.60;;;;;;;-8.16;100.00;97241.84;5019008;28;20057;-72
2023/12/03 07:19:48;;;;;;;21.88;12.32;;;;;;;-7.96;100.00;97251.31;5008114;28;20409;-74
2023/12/03 07:22:14;;;;;;;20.30;11.05;;;;;;;-7.89;100.00;97249.31;5005026;28;20050;-73
2023/12/03 07:24:42;;;;;;;20.42;11.30;;;;;;;-7.74;100.00;97247.00;5010501;28;20038;-74
2023/12/03 07:27:08;;;;;;;20.77;11.60;;;;;;;-7.36;100.00;97255.44;5015305;28;20452;-74
2023/12/03 07:29:34;;;;;;;21.67;11.85;;;;;;;-7.44;100.00;97247.81;5029966;28;20080;-74
2023/12/03 07:32:00;;;;;;;19.30;10.55;;;;;;;-7.13;100.00;97257.97;5015565;28;20045;-72
2023/12/03 07:34:28;;;;;;;18.92;10.65;;;;;;;-6.87;100.00;97253.09;4998503;28;20101;-73
2023/12/03 07:36:54;;;;;;;20.75;10.20;;;;;;;-6.48;100.00;97260.34;5013791;28;20124;-73
2023/12/03 07:39:19;;;;;;;18.30;11.48;;;;;;;-6.35;100.00;97260.03;5006476;28;20120;-73
2023/12/03 07:41:52;;;;;;;19.02;10.93;;;;;;;-6.53;100.00;97253.09;5018259;28;20052;-72
2023/12/03 07:44:18;;;;;;;18.92;10.40;;;;;;;-6.34;100.00;97256.31;5003033;28;21772;-72
2023/12/03 07:46:43;;;;;;;18.65;10.65;;;;;;;-5.90;100.00;97263.56;5016913;28;20046;-73
2023/12/03 07:49:09;;;;;;;17.42;10.18;;;;;;;-5.06;100.00;97265.88;5000731;28;20045;-72
2023/12/03 07:51:34;;;;;;;16.98;10.15;;;;;;;-4.28;100.00;97276.16;5013457;28;20045;-72
2023/12/03 07:53:59;;;;;;;18.83;10.07;;;;;;;-3.76;100.00;97273.75;5026539;28;20048;-73
2023/12/03 07:56:39;;;;;;;19.65;10.55;;;;;;;-3.34;100.00;97270.22;5015665;28;20395;-74
2023/12/03 07:59:05;;;;;;;22.27;12.38;;;;;;;-2.98;100.00;97276.47;5002952;28;20080;-74
2023/12/03 08:01:31;;;;;;;32.28;16.80;;;;;;;-4.12;100.00;97286.97;5000281;28;20042;-73
2023/12/03 08:03:57;;;;;;;29.80;14.48;;;;;;;-4.40;100.00;97277.38;4998727;28;20045;-74
2023/12/03 08:06:22;;;;;;;21.50;13.00;;;;;;;-3.30;100.00;97279.31;5011296;28;20628;-72
2023/12/03 08:08:48;;;;;;;26.85;12.40;;;;;;;-2.64;100.00;97283.25;5007132;28;20041;-75
2023/12/03 08:11:13;;;;;;;26.92;12.05;;;;;;;-2.17;99.11;97285.66;4994473;28;20037;-73
2023/12/03 08:13:39;;;;;;;20.95;12.05;;;;;;;-1.69;95.38;97276.41;5013644;28;20094;-75
2023/12/03 08:16:05;;;;;;;22.55;11.95;;;;;;;-1.32;91.75;97291.34;5009470;28;20048;-75
2023/12/03 08:18:31;;;;;;;25.92;12.48;;;;;;;-0.98;89.44;97294.94;5015734;28;20037;-72
2023/12/03 08:21:00;;;;;;;20.60;11.70;;;;;;;-0.57;85.00;97293.13;5016516;28;20049;-73
2023/12/03 08:23:26;;;;;;;15.38;8.73;;;;;;;-0.33;81.13;97291.31;4996890;28;20042;-73
2023/12/03 08:25:52;;;;;;;20.25;12.57;;;;;;;-0.06;78.80;97292.69;5006341;28;20043;-73
2023/12/03 08:28:17;;;;;;;18.92;10.93;;;;;;;-0.11;77.62;97296.25;5007680;28;20120;-72
2023/12/03 08:30:43;;;;;;;20.35;10.90;;;;;;;-0.02;76.40;97299.13;5012140;28;20045;-72
2023/12/03 08:33:08;;;;;;;17.85;11.00;;;;;;;0.04;74.01;97298.00;5005814;28;20053;-72
2023/12/03 08:35:34;;;;;;;16.50;9.73;;;;;;;0.17;73.05;97296.53;5008246;28;20123;-72
2023/12/03 08:38:00;;;;;;;21.25;12.40;;;;;;;-1.16;72.99;97292.91;5049987;23;20053;-70
2023/12/03 08:40:25;;;;;;;24.23;13.13;;;;;;;-0.99;81.41;97285.28;5037488;28;20052;-69
2023/12/03 08:42:50;;;;;;;20.13;12.43;;;;;;;0.20;80.63;97293.28;5060343;28;20048;-69
2023/12/03 08:45:16;;;;;;;22.70;12.20;;;;;;;1.05;72.21;97296.34;5050009;28;20045;-70
2023/12/03 08:47:42;;;;;;;18.45;11.13;;;;;;;1.45;68.85;97302.25;5042712;28;20060;-69
2023/12/03 08:50:07;;;;;;;19.52;12.65;;;;;;;1.18;66.21;97303.72;5034456;28;20049;-70
2023/12/03 08:52:33;;;;;;;31.50;19.38;;;;;;;-2.24;76.88;97298.53;5033415;28;20045;-70
2023/12/03 08:55:00;;;;;;;32.70;21.10;;;;;;;-2.92;95.27;97291.50;5039660;28;20574;-69
2023/12/03 08:57:25;;;;;;;26.88;17.38;;;;;;;-2.45;100.00;97283.50;5014042;28;20049;-69
2023/12/03 08:59:53;;;;;;;24.83;14.90;;;;;;;-1.63;99.27;97276.16;5016846;28;20304;-69
2023/12/03 09:02:19;;;;;;;24.45;14.07;;;;;;;0.11;85.51;97287.69;5023313;28;20140;-69
2023/12/03 09:04:44;;;;;;;26.35;15.35;;;;;;;0.63;79.33;97284.44;5024277;28;20050;-71
2023/12/03 09:07:10;;;;;;;23.98;14.10;;;;;;;0.55;77.93;97285.88;5022319;28;20056;-71
2023/12/03 09:09:35;;;;;;;22.20;13.75;;;;;;;1.21;75.78;97292.34;5029357;28;20501;-70
2023/12/03 09:12:01;;;;;;;24.83;14.45;;;;;;;2.02;72.27;97302.19;5027035;28;20637;-70
2023/12/03 09:14:27;;;;;;;22.58;14.23;;;;;;;2.58;68.74;97303.88;5022155;28;20123;-71
2023/12/03 09:16:53;;;;;;;26.27;15.35;;;;;;;2.71;65.91;97304.19;5026407;28;20049;-70
2023/12/03 09:19:19;;;;;;;25.10;15.82;;;;;;;3.26;66.55;97301.44;5023745;28;20041;-70
2023/12/03 09:21:44;;;;;;;28.13;16.60;;;;;;;3.40;64.22;97299.50;5029548;28;20444;-70
2023/12/03 09:24:10;;;;;;;25.45;16.25;;;;;;;3.96;63.93;97297.38;5024477;28;20045;-70
2023/12/03 09:26:35;;;;;;;25.90;16.60;;;;;;;4.72;60.70;97299.19;5025066;28;20562;-70
2023/12/03 09:29:00;;;;;;;26.27;15.18;;;;;;;4.63;58.67;97309.22;5020437;28;20424;-70
2023/12/03 09:31:26;;;;;;;23.95;14.95;;;;;;;4.55;59.43;97307.25;5023895;28;20517;-70
2023/12/03 09:33:51;;;;;;;26.00;14.77;;;;;;;4.45;60.09;97307.53;5031141;28;20064;-70
2023/12/03 09:36:17;;;;;;;25.33;14.27;;;;;;;4.60;60.00;97304.41;5023920;28;20046;-70
2023/12/03 09:38:42;;;;;;;22.00;13.40;;;;;;;4.90;59.06;97308.22;5031302;28;20457;-70
2023/12/03 09:41:13;;;;;;;21.73;13.65;;;;;;;5.21;57.60;97310.03;5030423;28;20102;-70
2023/12/03 09:43:41;;;;;;;20.60;13.55;;;;;;;5.09;56.88;97302.50;5024913;28;20047;-70
2023/12/03 09:46:13;;;;;;;21.80;13.32;;;;;;;4.46;58.63;97306.44;5018689;28;20053;-71
2023/12/03 09:48:42;;;;;;;18.30;11.43;;;;;;;3.92;60.39;97307.22;5031949;28;20123;-69
2023/12/03 09:51:12;;;;;;;20.17;12.80;;;;;;;3.96;62.96;97302.81;5024460;28;20046;-70
2023/12/03 09:53:47;;;;;;;23.25;13.95;;;;;;;4.50;61.67;97310.09;5031570;28;20493;-70
2023/12/03 09:56:13;;;;;;;21.02;13.05;;;;;;;5.03;59.19;97319.28;5008851;28;20052;-70
2023/12/03 09:58:39;;;;;;;22.15;13.15;;;;;;;4.85;58.75;97318.41;5035299;28;20048;-70
2023/12/03 10:01:05;;;;;;;21.05;12.70;;;;;;;4.85;60.26;97316.50;5009042;28;20603;-70
2023/12/03 10:03:31;;;;;;;22.02;13.02;;;;;;;4.84;60.16;97314.88;5030169;28;20072;-69
2023/12/03 10:05:57;;;;;;;21.55;13.63;;;;;;;4.49;61.57;97316.66;5028797;28;20053;-71
2023/12/03 10:08:23;;;;;;;23.00;13.85;;;;;;;4.33;62.80;97313.53;5021661;28;20110;-71
2023/12/03 10:11:00;;;;;;;24.13;13.80;;;;;;;4.47;63.36;97306.13;5016187;28;20041;-71
2023/12/03 10:13:26;;;;;;;24.75;14.02;;;;;;;4.90;63.20;97307.41;5017644;28;20041;-71
2023/12/03 10:15:52;;;;;;;25.42;14.35;;;;;;;5.32;61.02;97302.41;5012481;28;20229;-72
2023/12/03 10:18:18;;;;;;;22.45;13.70;;;;;;;4.82;60.83;97310.88;5027578;28;20116;-71
2023/12/03 10:20:44;;;;;;;22.23;13.20;;;;;;;5.14;61.85;97302.34;5009805;28;20052;-72
2023/12/03 10:23:14;;;;;;;25.85;14.63;;;;;;;5.11;61.44;97305.72;5008133;28;20045;-72
2023/12/03 10:25:40;;;;;;;20.70;13.25;;;;;;;4.98;61.57;97302.00;5033696;28;20047;-70
2023/12/03 10:28:07;;;;;;;22.73;14.13;;;;;;;4.48;61.41;97298.78;5020339;28;20128;-70
2023/12/03 10:30:33;;;;;;;24.80;14.05;;;;;;;4.73;63.35;97294.56;5028322;28;20049;-70
2023/12/03 10:32:59;;;;;;;23.15;14.02;;;;;;;5.39;62.23;97300.00;5034508;28;20584;-69
2023/12/03 10:35:27;;;;;;;20.90;13.90;;;;;;;5.82;60.03;97299.22;5007031;28;20054;-70
2023/12/03 10:37:53;;;;;;;22.40;13.95;;;;;;;6.09;58.44;97287.22;5017933;28;20037;-70
2023/12/03 10:40:19;;;;;;;24.75;14.73;;;;;;;6.20;59.12;97290.41;5016605;28;20041;-69
2023/12/03 10:42:45;;;;;;;23.38;13.80;;;;;;;6.19;58.69;97290.72;5028244;28;20482;-71
2023/12/03 10:45:13;;;;;;;22.70;13.70;;;;;;;6.11;58.45;97284.19;5008144;28;20521;-70
2023/12/03 10:47:39;;;;;;;21.67;13.48;;;;;;;5.96;58.51;97287.41;5029855;28;20123;-70
2023/12/03 10:50:06;;;;;;;22.40;13.27;;;;;;;5.73;58.72;97284.84;5026916;28;20069;-68
2023/12/03 10:52:35;;;;;;;24.58;14.23;;;;;;;4.66;59.58;97286.88;5034527;28;20037;-70
2023/12/03 10:55:01;;;;;;;20.42;13.68;;;;;;;5.14;59.54;97285.28;5039868;28;20041;-70
2023/12/03 10:57:29;;;;;;;20.58;13.15;;;;;;;4.74;61.73;97274.47;5032474;28;20110;-72
2023/12/03 11:00:10;;;;;;;22.77;13.77;;;;;;;5.21;61.41;97280.16;5024033;28;20072;-70
2023/12/03 11:02:52;;;;;;;21.33;13.65;;;;;;;4.70;60.48;97281.63;5011721;28;20041;-70
2023/12/03 11:05:23;;;;;;;22.38;14.70;;;;;;;3.19;62.79;97271.28;5025240;28;20136;-70
2023/12/03 11:07:49;;;;;;;24.00;14.52;;;;;;;4.50;65.69;97270.25;5027642;28;20046;-71